Time,TemperatureF,DewpointF,PressureIn,WindDirection,WindDirectionDegrees,WindSpeedMPH,WindSpeedGustMPH,Humidity,HourlyPrecipIn,Conditions,Clouds,dailyrainin,SoftwareType,DateUTC
2013-04-28 00:07:00,74.8,62.7,29.97,East,90,10.9,-999.0,66,-99.99,,,0.00,Acu-Link.com,2013-04-28 04:07:00,
2013-04-28 00:22:00,74.7,62.6,29.97,East,90,6.3,-999.0,66,-99.99,,,0.00,Acu-Link.com,2013-04-28 04:22:00,
2013-04-28 00:38:00,74.7,62.6,29.97,East,90,9.4,-999.0,66,-99.99,,,0.00,Acu-Link.com,2013-04-28 04:38:00,
2013-04-28 00:53:00,74.3,63.0,29.96,ESE,112,7.3,-999.0,68,-99.99,,,0.00,Acu-Link.com,2013-04-28 04:53:00,
2013-04-28 01:08:00,74.3,63.0,29.95,East,90,6.3,-999.0,68,-99.99,,,0.00,Acu-Link.com,2013-04-28 05:08:00,
2013-04-28 01:23:00,74.3,62.2,29.95,East,90,5.3,-999.0,66,-99.99,,,0.00,Acu-Link.com,2013-04-28 05:23:00,
2013-04-28 01:38:00,74.1,63.3,29.95,East,90,10.4,-999.0,69,-99.99,,,0.00,Acu-Link.com,2013-04-28 05:38:00,
2013-04-28 01:53:00,73.8,63.8,29.95,East,90,5.3,-999.0,71,-99.99,,,0.00,Acu-Link.com,2013-04-28 05:53:00,
2013-04-28 02:08:00,73.6,63.6,29.95,ESE,112,5.8,-999.0,71,-99.99,,,0.00,Acu-Link.com,2013-04-28 06:08:00,
2013-04-28 02:23:00,73.4,63.8,29.94,ESE,112,7.3,-999.0,72,-99.99,,,0.00,Acu-Link.com,2013-04-28 06:23:00,
2013-04-28 02:39:00,73.4,63.0,29.93,ESE,112,8.3,-999.0,70,-99.99,,,0.00,Acu-Link.com,2013-04-28 06:39:00,
2013-04-28 02:54:00,73.2,63.2,29.93,ESE,112,3.7,-999.0,71,-99.99,,,0.00,Acu-Link.com,2013-04-28 06:54:00,
2013-04-28 03:09:00,73.0,63.4,29.93,ESE,112,5.3,-999.0,72,-99.99,,,0.00,Acu-Link.com,2013-04-28 07:09:00,
2013-04-28 03:24:00,73.0,63.0,29.92,SE,135,11.4,-999.0,71,-99.99,,,0.00,Acu-Link.com,2013-04-28 07:24:00,
2013-04-28 03:39:00,73.0,63.4,29.92,ESE,112,5.8,-999.0,72,-99.99,,,0.00,Acu-Link.com,2013-04-28 07:39:00,
2013-04-28 03:54:00,72.7,63.5,29.91,ESE,112,8.9,-999.0,73,-99.99,,,0.00,Acu-Link.com,2013-04-28 07:54:00,
2013-04-28 04:09:00,72.5,63.3,29.91,ESE,112,4.7,-999.0,73,-99.99,,,0.00,Acu-Link.com,2013-04-28 08:09:00,
2013-04-28 04:25:00,72.7,63.1,29.91,ESE,112,5.3,-999.0,72,-99.99,,,0.00,Acu-Link.com,2013-04-28 08:25:00,
2013-04-28 04:40:00,72.7,63.5,29.91,East,90,4.2,-999.0,73,-99.99,,,0.00,Acu-Link.com,2013-04-28 08:40:00,
2013-04-28 04:55:00,72.5,62.9,29.91,ESE,112,7.8,-999.0,72,-99.99,,,0.00,Acu-Link.com,2013-04-28 08:55:00,
2013-04-28 05:10:00,72.5,62.1,29.91,ESE,112,4.7,-999.0,70,-99.99,,,0.00,Acu-Link.com,2013-04-28 09:10:00,
2013-04-28 05:25:00,72.7,62.3,29.91,ESE,112,8.9,-999.0,70,-99.99,,,0.00,Acu-Link.com,2013-04-28 09:25:00,
2013-04-28 05:40:00,72.9,62.5,29.91,ESE,112,5.8,-999.0,70,-99.99,,,0.00,Acu-Link.com,2013-04-28 09:40:00,
2013-04-28 05:55:00,72.7,62.3,29.91,ESE,112,10.9,-999.0,70,-99.99,,,0.00,Acu-Link.com,2013-04-28 09:55:00,
2013-04-28 06:10:00,72.5,62.1,29.91,ESE,112,4.2,-999.0,70,-99.99,,,0.00,Acu-Link.com,2013-04-28 10:10:00,
2013-04-28 06:26:00,72.5,62.1,29.92,East,90,7.8,-999.0,70,-99.99,,,0.00,Acu-Link.com,2013-04-28 10:26:00,
2013-04-28 06:41:00,72.5,62.5,29.92,East,90,3.2,-999.0,71,-99.99,,,0.00,Acu-Link.com,2013-04-28 10:41:00,
2013-04-28 06:56:00,72.3,62.4,29.92,ESE,112,4.2,-999.0,71,-99.99,,,0.00,Acu-Link.com,2013-04-28 10:56:00,
2013-04-28 07:11:00,73.0,63.0,29.92,East,90,8.9,-999.0,71,-99.99,,,0.00,Acu-Link.com,2013-04-28 11:11:00,
2013-04-28 07:26:00,73.9,63.1,29.93,ESE,112,7.8,-999.0,69,-99.99,,,0.00,Acu-Link.com,2013-04-28 11:26:00,
2013-04-28 07:41:00,75.0,63.7,29.93,East,90,5.3,-999.0,68,-99.99,,,0.00,Acu-Link.com,2013-04-28 11:41:00,
2013-04-28 07:56:00,75.7,62.2,29.92,ESE,112,8.3,-999.0,63,-99.99,,,0.00,Acu-Link.com,2013-04-28 11:56:00,
2013-04-28 08:11:00,76.8,62.8,29.93,East,90,6.8,-999.0,62,-99.99,,,0.00,Acu-Link.com,2013-04-28 12:11:00,
2013-04-28 08:27:00,77.5,62.5,29.93,ESE,112,9.9,-999.0,60,-99.99,,,0.00,Acu-Link.com,2013-04-28 12:27:00,
2013-04-28 08:42:00,78.6,63.1,29.93,SE,135,8.3,-999.0,59,-99.99,,,0.00,Acu-Link.com,2013-04-28 12:42:00,
2013-04-28 08:57:00,78.1,62.6,29.93,ESE,112,6.3,-999.0,59,-99.99,,,0.00,Acu-Link.com,2013-04-28 12:57:00,
2013-04-28 09:12:00,79.2,62.1,29.94,ESE,112,9.9,-999.0,56,-99.99,,,0.00,Acu-Link.com,2013-04-28 13:12:00,
2013-04-28 09:27:00,79.3,62.7,29.94,ESE,112,9.4,-999.0,57,-99.99,,,0.00,Acu-Link.com,2013-04-28 13:27:00,
2013-04-28 09:42:00,78.1,62.6,29.94,NE,45,9.9,-999.0,59,-99.99,,,0.00,Acu-Link.com,2013-04-28 13:42:00,
2013-04-28 09:57:00,78.8,62.3,29.94,East,90,8.9,-999.0,57,-99.99,,,0.00,Acu-Link.com,2013-04-28 13:57:00,
2013-04-28 10:12:00,79.2,62.1,29.94,SSE,157,6.3,-999.0,56,-99.99,,,0.00,Acu-Link.com,2013-04-28 14:12:00,
2013-04-28 10:27:00,79.5,62.4,29.94,ESE,112,8.9,-999.0,56,-99.99,,,0.00,Acu-Link.com,2013-04-28 14:27:00,
2013-04-28 10:43:00,80.4,62.7,29.95,East,90,11.9,-999.0,55,-99.99,,,0.00,Acu-Link.com,2013-04-28 14:43:00,
2013-04-28 10:58:00,80.6,62.9,29.94,ESE,112,11.9,-999.0,55,-99.99,,,0.00,Acu-Link.com,2013-04-28 14:58:00,
2013-04-28 11:13:00,79.9,63.3,29.95,NE,45,10.4,-999.0,57,-99.99,,,0.00,Acu-Link.com,2013-04-28 15:13:00,
2013-04-28 11:28:00,80.8,63.6,29.94,ESE,112,8.3,-999.0,56,-99.99,,,0.00,Acu-Link.com,2013-04-28 15:28:00,
2013-04-28 11:43:00,81.3,64.6,29.95,SE,135,6.8,-999.0,57,-99.99,,,0.00,Acu-Link.com,2013-04-28 15:43:00,
2013-04-28 11:58:00,79.5,64.4,29.95,East,90,4.2,-999.0,60,-99.99,,,0.00,Acu-Link.com,2013-04-28 15:58:00,
2013-04-28 12:14:00,81.7,65.5,29.95,East,90,6.8,-999.0,58,-99.99,,,0.00,Acu-Link.com,2013-04-28 16:14:00,
2013-04-28 12:29:00,82.0,65.2,29.95,ENE,67,9.4,-999.0,57,-99.99,,,0.00,Acu-Link.com,2013-04-28 16:29:00,
2013-04-28 12:44:00,80.1,64.9,29.94,ENE,67,5.3,-999.0,60,-99.99,,,0.00,Acu-Link.com,2013-04-28 16:44:00,
2013-04-28 13:00:00,80.8,65.1,29.94,East,90,9.9,-999.0,59,-99.99,,,0.00,Acu-Link.com,2013-04-28 17:00:00,
2013-04-28 13:15:00,82.0,65.7,29.95,SE,135,6.3,-999.0,58,-99.99,,,0.00,Acu-Link.com,2013-04-28 17:15:00,
2013-04-28 13:30:00,81.7,65.0,29.94,ENE,67,7.3,-999.0,57,-99.99,,,0.00,Acu-Link.com,2013-04-28 17:30:00,
2013-04-28 13:45:00,80.8,64.6,29.94,ESE,112,12.5,-999.0,58,-99.99,,,0.00,Acu-Link.com,2013-04-28 17:45:00,
2013-04-28 14:00:00,80.1,64.0,29.93,East,90,8.3,-999.0,58,-99.99,,,0.00,Acu-Link.com,2013-04-28 18:00:00,
2013-04-28 14:15:00,82.0,64.2,29.93,ESE,112,5.8,-999.0,55,-99.99,,,0.00,Acu-Link.com,2013-04-28 18:15:00,
2013-04-28 14:30:00,81.7,63.9,29.92,ESE,112,7.8,-999.0,55,-99.99,,,0.00,Acu-Link.com,2013-04-28 18:30:00,
2013-04-28 14:45:00,81.7,63.4,29.91,East,90,10.4,-999.0,54,-99.99,,,0.00,Acu-Link.com,2013-04-28 18:45:00,
2013-04-28 15:00:00,82.0,63.2,29.91,ESE,112,11.4,-999.0,53,-99.99,,,0.00,Acu-Link.com,2013-04-28 19:00:00,
2013-04-28 15:16:00,81.5,63.7,29.90,ESE,112,9.4,-999.0,55,-99.99,,,0.00,Acu-Link.com,2013-04-28 19:16:00,
2013-04-28 15:31:00,82.2,63.3,29.90,ESE,112,9.4,-999.0,53,-99.99,,,0.00,Acu-Link.com,2013-04-28 19:31:00,
2013-04-28 15:46:00,81.0,63.3,29.89,ESE,112,4.2,-999.0,55,-99.99,,,0.00,Acu-Link.com,2013-04-28 19:46:00,
2013-04-28 16:01:00,81.1,61.2,29.89,ESE,112,9.4,-999.0,51,-99.99,,,0.00,Acu-Link.com,2013-04-28 20:01:00,
2013-04-28 16:16:00,81.9,61.4,29.89,ESE,112,9.4,-999.0,50,-99.99,,,0.00,Acu-Link.com,2013-04-28 20:16:00,
2013-04-28 16:31:00,81.3,62.5,29.87,ENE,67,8.3,-999.0,53,-99.99,,,0.00,Acu-Link.com,2013-04-28 20:31:00,
2013-04-28 16:46:00,81.3,63.6,29.87,ESE,112,4.7,-999.0,55,-99.99,,,0.00,Acu-Link.com,2013-04-28 20:46:00,
2013-04-28 17:01:00,81.5,63.7,29.87,ESE,112,7.3,-999.0,55,-99.99,,,0.00,Acu-Link.com,2013-04-28 21:01:00,
2013-04-28 17:16:00,80.6,63.9,29.87,SE,135,6.3,-999.0,57,-99.99,,,0.00,Acu-Link.com,2013-04-28 21:16:00,
2013-04-28 17:32:00,78.8,62.8,29.86,ESE,112,8.3,-999.0,58,-99.99,,,0.00,Acu-Link.com,2013-04-28 21:32:00,
2013-04-28 17:47:00,79.9,63.8,29.85,ESE,112,9.4,-999.0,58,-99.99,,,0.00,Acu-Link.com,2013-04-28 21:47:00,
2013-04-28 18:02:00,79.9,63.3,29.85,ESE,112,6.8,-999.0,57,-99.99,,,0.00,Acu-Link.com,2013-04-28 22:02:00,
2013-04-28 18:17:00,79.0,63.9,29.85,ESE,112,10.9,-999.0,60,-99.99,,,0.00,Acu-Link.com,2013-04-28 22:17:00,
2013-04-28 18:32:00,78.8,63.2,29.85,ESE,112,8.9,-999.0,59,-99.99,,,0.00,Acu-Link.com,2013-04-28 22:32:00,
2013-04-28 18:48:00,78.4,63.3,29.85,ESE,112,5.8,-999.0,60,-99.99,,,0.00,Acu-Link.com,2013-04-28 22:48:00,
2013-04-28 19:03:00,77.9,62.4,29.85,ESE,112,8.9,-999.0,59,-99.99,,,0.00,Acu-Link.com,2013-04-28 23:03:00,
2013-04-28 19:18:00,77.7,62.2,29.85,ESE,112,6.8,-999.0,59,-99.99,,,0.00,Acu-Link.com,2013-04-28 23:18:00,
2013-04-28 19:33:00,77.2,62.7,29.86,ESE,112,7.8,-999.0,61,-99.99,,,0.00,Acu-Link.com,2013-04-28 23:33:00,
2013-04-28 19:48:00,76.6,62.6,29.86,ESE,112,7.3,-999.0,62,-99.99,,,0.00,Acu-Link.com,2013-04-28 23:48:00,
2013-04-28 20:03:00,76.1,62.6,29.86,ESE,112,6.3,-999.0,63,-99.99,,,0.00,Acu-Link.com,2013-04-29 00:03:00,
2013-04-28 20:18:00,75.6,63.0,29.86,ESE,112,6.8,-999.0,65,-99.99,,,0.00,Acu-Link.com,2013-04-29 00:18:00,
2013-04-28 20:34:00,75.4,63.2,29.86,ESE,112,3.7,-999.0,66,-99.99,,,0.00,Acu-Link.com,2013-04-29 00:34:00,
2013-04-28 20:49:00,75.4,63.2,29.86,SE,135,5.3,-999.0,66,-99.99,,,0.00,Acu-Link.com,2013-04-29 00:49:00,
2013-04-28 21:04:00,75.0,63.3,29.87,ESE,112,3.2,-999.0,67,-99.99,,,0.00,Acu-Link.com,2013-04-29 01:04:00,
2013-04-28 21:19:00,75.0,63.7,29.87,ESE,112,4.2,-999.0,68,-99.99,,,0.00,Acu-Link.com,2013-04-29 01:19:00,
2013-04-28 21:34:00,75.2,63.9,29.87,ESE,112,2.7,-999.0,68,-99.99,,,0.00,Acu-Link.com,2013-04-29 01:34:00,
2013-04-28 21:49:00,75.2,63.9,29.87,ESE,112,4.7,-999.0,68,-99.99,,,0.00,Acu-Link.com,2013-04-29 01:49:00,
2013-04-28 22:05:00,75.2,63.0,29.88,ESE,112,8.3,-999.0,66,-99.99,,,0.00,Acu-Link.com,2013-04-29 02:05:00,
2013-04-28 22:20:00,75.0,63.7,29.89,ESE,112,3.2,-999.0,68,-99.99,,,0.00,Acu-Link.com,2013-04-29 02:20:00,
2013-04-28 22:35:00,75.4,64.9,29.88,SSE,157,4.7,-999.0,70,-99.99,,,0.00,Acu-Link.com,2013-04-29 02:35:00,
2013-04-28 22:50:00,75.2,63.9,29.88,East,90,7.8,-999.0,68,-99.99,,,0.00,Acu-Link.com,2013-04-29 02:50:00,
2013-04-28 23:05:00,75.0,64.1,29.88,East,90,3.7,-999.0,69,-99.99,,,0.00,Acu-Link.com,2013-04-29 03:05:00,
2013-04-28 23:20:00,74.8,63.9,29.89,SE,135,5.3,-999.0,69,-99.99,,,0.00,Acu-Link.com,2013-04-29 03:20:00,
2013-04-28 23:35:00,75.4,65.3,29.88,ESE,112,10.9,-999.0,71,-99.99,,,0.00,Acu-Link.com,2013-04-29 03:35:00,
2013-04-28 23:51:00,75.7,65.6,29.88,ESE,112,6.3,-999.0,71,-99.99,,,0.00,Acu-Link.com,2013-04-29 03:51:00,